createdAt,value
2023-03-10T00:08:27.223Z,4.03
2023-03-10T00:23:30.951Z,4.11
2023-03-10T00:38:34.897Z,4.18
2023-03-10T01:06:01.291Z,4.10
2023-03-10T01:21:07.573Z,4.04
2023-03-10T01:36:16.095Z,4.05
2023-03-10T01:51:22.318Z,3.68
2023-03-10T02:06:26.828Z,3.51
2023-03-10T02:21:49.739Z,3.17
2023-03-10T02:36:53.172Z,3.13
2023-03-10T02:51:59.495Z,2.87
2023-03-10T03:07:03.739Z,2.52
2023-03-10T03:22:07.789Z,2.41
2023-03-10T03:37:26.302Z,2.43
2023-03-10T03:52:29.685Z,2.43
2023-03-10T04:07:34.123Z,2.34
2023-03-10T04:22:38.536Z,2.37
2023-03-10T04:37:42.480Z,2.44
2023-03-10T04:52:46.592Z,2.43
2023-03-10T05:07:50.215Z,2.41
2023-03-10T05:22:55.816Z,2.45
2023-03-10T05:37:59.777Z,2.49
2023-03-10T05:53:03.641Z,2.44
2023-03-10T06:08:06.911Z,2.47
2023-03-10T06:23:10.277Z,2.44
2023-03-10T06:38:14.369Z,2.63
2023-03-10T06:53:20.058Z,2.68
2023-03-10T07:08:23.203Z,2.78
2023-03-10T07:23:26.531Z,2.97
2023-03-10T07:38:29.756Z,3.06
2023-03-10T07:53:33.437Z,3.26
2023-03-10T08:08:37.327Z,3.50
2023-03-10T08:23:40.498Z,3.62
2023-03-10T08:38:44.202Z,3.58
2023-03-10T08:53:54.331Z,3.65
2023-03-10T09:08:58.260Z,3.87
2023-03-10T09:24:03.431Z,4.04
2023-03-10T09:39:07.077Z,3.92
2023-03-10T09:54:56.579Z,3.95
2023-03-10T10:10:14.420Z,4.06
2023-03-10T10:25:21.361Z,4.07
2023-03-10T10:40:28.515Z,4.30
2023-03-10T10:56:11.963Z,4.50
2023-03-10T11:11:32.081Z,4.51
2023-03-10T11:26:50.322Z,4.68
2023-03-10T11:42:04.060Z,4.74
2023-03-10T11:57:17.473Z,4.82
2023-03-10T12:12:28.696Z,5.03
2023-03-10T12:28:11.469Z,5.32
2023-03-10T12:43:47.155Z,5.52
2023-03-10T12:58:57.676Z,5.43
2023-03-10T13:14:15.289Z,5.34
2023-03-10T13:29:20.884Z,5.49
2023-03-10T13:44:32.712Z,5.65
2023-03-10T13:59:38.427Z,5.88
2023-03-10T14:14:42.629Z,5.87
2023-03-10T14:29:51.813Z,6.01
2023-03-10T14:44:55.395Z,6.07
2023-03-10T14:59:59.434Z,6.21
2023-03-10T15:15:04.170Z,6.28
2023-03-10T15:30:16.699Z,6.37
2023-03-10T15:45:20.240Z,6.20
2023-03-10T16:00:26.080Z,6.14
2023-03-10T16:15:29.722Z,6.07
2023-03-10T16:30:33.785Z,6.07
2023-03-10T16:45:37.559Z,6.10
2023-03-10T17:00:41.158Z,6.11
2023-03-10T17:15:44.601Z,6.11
2023-03-10T17:30:49.204Z,6.08
2023-03-10T17:45:57.048Z,6.05
2023-03-10T18:01:16.311Z,6.05
2023-03-10T18:16:29.072Z,6.00
2023-03-10T18:31:34.874Z,6.07
2023-03-10T18:46:38.312Z,6.13
2023-03-10T19:01:41.734Z,6.15
2023-03-10T19:16:46.186Z,6.14
2023-03-10T19:31:51.172Z,6.17
2023-03-10T19:46:55.559Z,6.18
2023-03-10T20:02:02.737Z,6.13
2023-03-10T20:17:06.839Z,6.10
2023-03-10T20:32:10.752Z,6.08
2023-03-10T20:47:14.312Z,6.11
2023-03-10T21:02:18.484Z,6.08
2023-03-10T21:17:23.189Z,6.07
2023-03-10T21:32:27.193Z,6.10
2023-03-10T21:47:30.464Z,6.05
2023-03-10T22:02:36.132Z,6.04
2023-03-10T22:17:39.347Z,6.08
2023-03-10T22:32:42.774Z,6.00
2023-03-10T22:47:46.998Z,5.96
2023-03-10T23:02:52.408Z,5.95
2023-03-10T23:17:56.864Z,5.90
2023-03-10T23:33:00.203Z,5.94
2023-03-10T23:48:04.976Z,5.89
